createdAt,value
2022-10-31T00:05:16.019Z,58.593
2022-10-31T00:20:18.286Z,59.11
2022-10-31T00:35:20.648Z,61.796
2022-10-31T00:50:23.011Z,62.48
2022-10-31T01:05:25.352Z,62.484
2022-10-31T01:20:27.576Z,63.546
2022-10-31T01:35:29.786Z,66.4
2022-10-31T01:50:32.141Z,64.587
2022-10-31T02:05:34.496Z,64.066
2022-10-31T02:20:36.734Z,66.522
2022-10-31T02:35:38.961Z,66.287
2022-10-31T02:50:41.173Z,66.257
2022-10-31T03:05:43.396Z,71.657
2022-10-31T03:20:45.645Z,72.145
2022-10-31T03:35:48.118Z,69.657
2022-10-31T03:50:50.381Z,69.855
2022-10-31T04:05:52.595Z,69.05
2022-10-31T04:20:54.829Z,69.711
2022-10-31T04:35:56.982Z,71.285
2022-10-31T04:50:59.277Z,65.479
2022-10-31T05:06:01.562Z,68.896
2022-10-31T05:21:03.899Z,65.3
2022-10-31T05:36:06.191Z,70.166
2022-10-31T05:51:08.441Z,70.178
2022-10-31T06:06:10.647Z,70.592
2022-10-31T06:21:14.992Z,70.873
2022-10-31T06:36:20.286Z,70.517
2022-10-31T06:51:22.624Z,71.37
2022-10-31T07:06:24.856Z,71.118
2022-10-31T07:21:27.345Z,72.251
2022-10-31T07:36:29.673Z,70.585
2022-10-31T07:51:32.002Z,70.511
2022-10-31T08:06:34.220Z,70.266
2022-10-31T08:21:36.641Z,70.442
2022-10-31T08:36:38.871Z,70.566
2022-10-31T08:51:42.183Z,69.989
2022-10-31T09:07:08.037Z,69.742
2022-10-31T09:22:22.177Z,73.086
2022-10-31T09:37:24.517Z,71.087
2022-10-31T09:52:26.913Z,67.78
2022-10-31T10:07:29.228Z,71.131
2022-10-31T10:22:31.544Z,69.426
2022-10-31T10:37:33.764Z,70.947
2022-10-31T10:52:42.045Z,74.315
2022-10-31T11:07:47.045Z,71.025
2022-10-31T11:22:49.336Z,73.275
2022-10-31T11:37:51.673Z,70.408
2022-10-31T12:08:00.557Z,72.596
2022-10-31T12:23:07.001Z,72.985
2022-10-31T12:38:09.213Z,70.585
2022-10-31T12:53:11.584Z,69.674
2022-10-31T13:08:13.822Z,72.216
2022-10-31T13:23:30.035Z,70.058
2022-10-31T13:38:39.289Z,73.684
2022-10-31T13:53:41.585Z,73.251
2022-10-31T14:08:43.858Z,72.74
2022-10-31T14:23:48.396Z,71.944
2022-10-31T14:38:53.168Z,69.587
2022-10-31T14:53:55.399Z,71.564
2022-10-31T15:08:57.616Z,73.997
2022-10-31T15:23:59.859Z,70.559
2022-10-31T15:39:02.211Z,72.616
2022-10-31T15:54:04.489Z,72.294
2022-10-31T16:09:06.763Z,70.364
2022-10-31T16:24:09.042Z,69.117
2022-10-31T16:39:11.389Z,70.011
2022-10-31T16:54:14.122Z,70.521
2022-10-31T17:09:16.374Z,70.297
2022-10-31T17:24:18.628Z,69.456
2022-10-31T17:39:20.873Z,70.095
2022-10-31T17:54:23.103Z,68.76
2022-10-31T18:09:25.376Z,68.643
2022-10-31T18:24:27.587Z,68.621
2022-10-31T18:39:29.835Z,71.515
2022-10-31T18:54:32.064Z,70.507
2022-10-31T19:09:34.400Z,70.867
2022-10-31T19:24:36.621Z,68.62
2022-10-31T19:39:43.637Z,70.749
2022-10-31T19:54:46.529Z,70.254
2022-10-31T20:09:48.792Z,72.356
2022-10-31T20:24:51.061Z,72.788
2022-10-31T20:39:55.768Z,74.627
2022-10-31T20:54:59.106Z,73.567
2022-10-31T21:10:01.423Z,74.635
2022-10-31T21:25:03.624Z,74.065
2022-10-31T21:40:05.900Z,73.158
2022-10-31T21:55:08.464Z,70.92
2022-10-31T22:10:10.728Z,72.331
2022-10-31T22:25:12.966Z,69.793
2022-10-31T22:40:15.218Z,71.264
2022-10-31T22:55:17.440Z,73.038
2022-10-31T23:10:19.758Z,74.871
2022-10-31T23:25:22.019Z,74.291
2022-10-31T23:40:24.269Z,71.094
2022-10-31T23:55:26.533Z,71.08
